createdAt,value
2019-03-04T00:00:42.501Z,934.73
2019-03-04T00:01:42.508Z,934.62
2019-03-04T00:02:42.310Z,934.70
2019-03-04T00:03:42.213Z,934.69
2019-03-04T00:04:42.133Z,934.68
2019-03-04T00:05:42.016Z,934.67
2019-03-04T00:06:41.917Z,934.65
2019-03-04T00:07:41.947Z,934.61
2019-03-04T00:08:41.723Z,934.65
2019-03-04T00:09:41.643Z,934.65
2019-03-04T00:10:41.528Z,934.72
2019-03-04T00:11:41.430Z,934.72
2019-03-04T00:12:41.336Z,934.72
2019-03-04T00:13:41.234Z,934.68
2019-03-04T00:14:41.156Z,934.68
2019-03-04T00:15:41.042Z,934.73
2019-03-04T00:16:40.943Z,934.74
2019-03-04T00:17:40.849Z,934.70
2019-03-04T00:18:40.749Z,934.68
2019-03-04T00:19:40.668Z,934.78
2019-03-04T00:20:40.556Z,934.81
2019-03-04T00:21:40.461Z,934.77
2019-03-04T00:22:40.358Z,934.71
2019-03-04T00:23:40.263Z,934.70
2019-03-04T00:24:40.183Z,934.69
2019-03-04T00:25:40.069Z,934.66
2019-03-04T00:26:39.968Z,934.67
2019-03-04T00:27:39.874Z,934.62
2019-03-04T00:28:39.773Z,934.63
2019-03-04T00:29:39.694Z,934.65
2019-03-04T00:30:39.581Z,934.64
2019-03-04T00:31:39.482Z,934.68
2019-03-04T00:32:39.384Z,934.62
2019-03-04T00:33:39.289Z,934.61
2019-03-04T00:34:39.207Z,934.58
2019-03-04T00:35:39.093Z,934.62
2019-03-04T00:36:38.997Z,934.53
2019-03-04T00:37:38.898Z,934.48
2019-03-04T00:38:38.802Z,934.52
2019-03-04T00:39:38.723Z,934.46
2019-03-04T00:40:38.606Z,934.38
2019-03-04T00:41:38.515Z,934.33
2019-03-04T00:42:38.415Z,934.33
2019-03-04T00:43:38.324Z,934.28
2019-03-04T00:44:38.226Z,934.30
2019-03-04T00:45:38.138Z,934.22
2019-03-04T00:46:38.026Z,934.24
2019-03-04T00:47:37.929Z,934.27
2019-03-04T00:48:37.830Z,934.26
2019-03-04T00:49:37.733Z,934.23
2019-03-04T00:50:37.654Z,934.27
2019-03-04T00:51:37.538Z,934.23
2019-03-04T00:52:37.447Z,934.24
2019-03-04T00:53:37.343Z,934.21
2019-03-04T00:54:37.250Z,934.26
2019-03-04T00:55:37.169Z,934.21
2019-03-04T00:56:37.054Z,934.20
2019-03-04T00:57:36.959Z,934.15
2019-03-04T00:58:36.863Z,934.06
2019-03-04T00:59:36.768Z,934.04
2019-03-04T01:00:36.681Z,934.02
2019-03-04T01:01:36.566Z,934.01
2019-03-04T01:02:36.471Z,934.04
2019-03-04T01:03:36.373Z,934.05
2019-03-04T01:04:36.285Z,933.98
2019-03-04T01:05:36.196Z,934.01
2019-03-04T01:06:36.087Z,934.05
2019-03-04T01:07:35.993Z,934.04
2019-03-04T01:08:35.899Z,933.99
2019-03-04T01:09:35.793Z,934.02
2019-03-04T01:10:35.713Z,934.03
2019-03-04T01:11:35.597Z,933.98
2019-03-04T01:12:35.500Z,933.96
2019-03-04T01:13:35.406Z,933.95
2019-03-04T01:14:35.308Z,933.93
2019-03-04T01:15:35.228Z,933.93
2019-03-04T01:16:35.114Z,933.89
2019-03-04T01:17:35.145Z,933.89
2019-03-04T01:18:34.920Z,933.85
2019-03-04T01:19:34.824Z,933.80
2019-03-04T01:20:34.742Z,933.82
2019-03-04T01:21:34.633Z,933.72
2019-03-04T01:22:34.534Z,933.70
2019-03-04T01:23:34.439Z,933.74
2019-03-04T01:24:34.442Z,933.72
2019-03-04T01:25:34.256Z,933.76
2019-03-04T01:26:34.143Z,933.74
2019-03-04T01:27:34.058Z,933.70
2019-03-04T01:28:33.948Z,933.71
2019-03-04T01:29:33.852Z,933.68
2019-03-04T01:30:33.771Z,933.69
2019-03-04T01:31:33.764Z,933.70
2019-03-04T01:32:33.569Z,933.67
2019-03-04T01:33:33.464Z,933.75
2019-03-04T01:34:33.366Z,933.83
2019-03-04T01:35:33.287Z,933.83
2019-03-04T01:36:33.173Z,933.86
2019-03-04T01:37:33.078Z,933.80
2019-03-04T01:38:33.083Z,933.86
2019-03-04T01:39:32.885Z,933.87
2019-03-04T01:40:32.800Z,933.86
2019-03-04T01:41:32.690Z,933.88
2019-03-04T01:42:32.589Z,933.89
2019-03-04T01:43:32.495Z,933.88
2019-03-04T01:44:32.396Z,933.86
2019-03-04T01:45:32.426Z,933.91
2019-03-04T01:46:32.200Z,933.88
2019-03-04T01:47:32.103Z,933.86
2019-03-04T01:48:32.004Z,933.79
2019-03-04T01:49:31.908Z,933.76
2019-03-04T01:50:31.827Z,933.73
2019-03-04T01:51:31.713Z,933.75
2019-03-04T01:52:31.723Z,933.71
2019-03-04T01:53:31.521Z,933.71
2019-03-04T01:54:31.421Z,933.69
2019-03-04T01:55:31.342Z,933.67
2019-03-04T01:56:31.226Z,933.65
2019-03-04T01:57:31.129Z,933.55
2019-03-04T01:58:31.035Z,933.57
2019-03-04T01:59:31.041Z,933.58
2019-03-04T02:00:30.860Z,933.54
2019-03-04T02:01:30.740Z,933.56
2019-03-04T02:02:30.643Z,933.56
2019-03-04T02:03:30.545Z,933.55
2019-03-04T02:04:30.452Z,933.51
2019-03-04T02:05:30.371Z,933.49
2019-03-04T02:06:30.373Z,933.47
2019-03-04T02:07:30.156Z,933.45
2019-03-04T02:08:30.062Z,933.36
2019-03-04T02:09:29.965Z,933.36
2019-03-04T02:10:29.885Z,933.36
2019-03-04T02:11:29.768Z,933.33
2019-03-04T02:12:29.671Z,933.24
2019-03-04T02:13:29.677Z,933.25
2019-03-04T02:14:29.474Z,933.28
2019-03-04T02:15:29.382Z,933.27
2019-03-04T02:16:29.295Z,933.25
2019-03-04T02:17:29.197Z,933.25
2019-03-04T02:18:29.092Z,933.34
2019-03-04T02:19:29.003Z,933.28
2019-03-04T02:20:29.002Z,933.29
2019-03-04T02:21:28.808Z,933.25
2019-03-04T02:22:28.694Z,933.19
2019-03-04T02:23:28.596Z,933.12
2019-03-04T02:24:28.502Z,933.08
2019-03-04T02:25:28.403Z,932.93
2019-03-04T02:26:28.320Z,932.89
2019-03-04T02:27:28.327Z,932.80
2019-03-04T02:28:28.109Z,932.81
2019-03-04T02:29:28.013Z,932.77
2019-03-04T02:30:27.924Z,932.77
2019-03-04T02:31:27.833Z,932.75
2019-03-04T02:32:27.719Z,932.74
2019-03-04T02:33:27.621Z,932.70
2019-03-04T02:34:27.629Z,932.67
2019-03-04T02:35:27.429Z,932.59
2019-03-04T02:36:27.346Z,932.57
2019-03-04T02:37:27.233Z,932.54
2019-03-04T02:38:27.132Z,932.49
2019-03-04T02:39:27.038Z,932.49
2019-03-04T02:40:27.062Z,932.44
2019-03-04T02:41:26.856Z,932.47
2019-03-04T02:42:26.740Z,932.51
2019-03-04T02:43:26.649Z,932.47
2019-03-04T02:44:26.549Z,932.56
2019-03-04T02:45:26.465Z,932.60
2019-03-04T02:46:26.402Z,932.56
2019-03-04T02:47:26.251Z,932.61
2019-03-04T02:48:26.269Z,932.60
2019-03-04T02:49:26.054Z,932.62
2019-03-04T02:50:25.959Z,932.58
2019-03-04T02:51:25.876Z,932.58
2019-03-04T02:52:25.759Z,932.57
2019-03-04T02:53:25.668Z,932.52
2019-03-04T02:54:25.691Z,932.53
2019-03-04T02:55:25.468Z,932.62
2019-03-04T02:56:25.385Z,932.53
2019-03-04T02:57:25.277Z,932.50
2019-03-04T02:58:25.171Z,932.47
2019-03-04T02:59:25.085Z,932.44
2019-03-04T03:00:24.978Z,932.40
2019-03-04T03:01:24.900Z,932.42
2019-03-04T03:02:24.777Z,932.38
2019-03-04T03:03:24.707Z,932.41
2019-03-04T03:04:24.580Z,932.45
2019-03-04T03:05:24.485Z,932.43
2019-03-04T03:06:24.402Z,932.42
2019-03-04T03:07:24.282Z,932.49
2019-03-04T03:08:24.186Z,932.47
2019-03-04T03:09:24.089Z,932.45
2019-03-04T03:10:23.990Z,932.56
2019-03-04T03:11:23.908Z,932.51
2019-03-04T03:12:23.796Z,932.61
2019-03-04T03:13:23.694Z,932.64
2019-03-04T03:14:23.597Z,932.61
2019-03-04T03:15:23.501Z,932.65
2019-03-04T03:16:23.416Z,932.61
2019-03-04T03:17:23.305Z,932.61
2019-03-04T03:18:23.205Z,932.63
2019-03-04T03:19:23.108Z,932.66
2019-03-04T03:20:23.010Z,932.57
2019-03-04T03:21:22.939Z,932.58
2019-03-04T03:22:22.812Z,932.57
2019-03-04T03:23:22.718Z,932.51
2019-03-04T03:24:22.619Z,932.51
2019-03-04T03:25:22.517Z,932.51
2019-03-04T03:26:22.434Z,932.55
2019-03-04T03:27:22.375Z,932.61
2019-03-04T03:28:22.222Z,932.56
2019-03-04T03:29:22.125Z,932.49
2019-03-04T03:30:22.052Z,932.50
2019-03-04T03:31:21.952Z,932.54
2019-03-04T03:32:21.838Z,932.47
2019-03-04T03:33:21.744Z,932.51
2019-03-04T03:34:21.633Z,932.54
2019-03-04T03:35:21.539Z,932.51
2019-03-04T03:36:21.456Z,932.48
2019-03-04T03:37:21.342Z,932.51
2019-03-04T03:38:21.241Z,932.45
2019-03-04T03:39:21.143Z,932.42
2019-03-04T03:40:21.115Z,932.42
2019-03-04T03:41:20.963Z,932.33
2019-03-04T03:42:20.848Z,932.32
2019-03-04T03:43:20.751Z,932.28
2019-03-04T03:44:20.658Z,932.21
2019-03-04T03:45:20.558Z,932.21
2019-03-04T03:46:20.471Z,932.16
2019-03-04T03:47:20.355Z,932.18
2019-03-04T03:48:20.268Z,932.14
2019-03-04T03:49:20.159Z,932.12
2019-03-04T03:50:20.063Z,932.11
2019-03-04T03:51:19.980Z,932.14
2019-03-04T03:52:19.868Z,932.08
2019-03-04T03:53:19.767Z,932.09
2019-03-04T03:54:19.667Z,932.05
2019-03-04T03:55:19.571Z,932.13
2019-03-04T03:56:19.494Z,932.00
2019-03-04T03:57:19.477Z,932.00
2019-03-04T03:58:19.275Z,931.93
2019-03-04T03:59:19.180Z,931.89
2019-03-04T04:00:19.079Z,931.91
2019-03-04T04:01:18.984Z,931.86
2019-03-04T04:02:18.900Z,931.88
2019-03-04T04:03:18.784Z,931.93
2019-03-04T04:04:18.685Z,931.84
2019-03-04T04:05:18.588Z,932.01
2019-03-04T04:06:18.494Z,931.84
2019-03-04T04:07:18.412Z,931.78
2019-03-04T04:08:18.306Z,931.77
2019-03-04T04:09:18.200Z,931.75
2019-03-04T04:10:18.101Z,931.71
2019-03-04T04:11:18.105Z,931.62
2019-03-04T04:12:17.924Z,931.60
2019-03-04T04:13:17.802Z,931.66
2019-03-04T04:14:17.711Z,931.56
2019-03-04T04:15:17.612Z,931.65
2019-03-04T04:16:17.510Z,931.56
2019-03-04T04:17:17.427Z,931.56
2019-03-04T04:18:17.314Z,931.74
2019-03-04T04:19:17.215Z,931.61
2019-03-04T04:20:17.133Z,931.51
2019-03-04T04:21:17.025Z,931.42
2019-03-04T04:22:16.935Z,931.42
2019-03-04T04:23:16.821Z,931.49
2019-03-04T04:24:16.724Z,931.35
2019-03-04T04:25:16.630Z,931.32
2019-03-04T04:26:16.638Z,931.45
2019-03-04T04:27:16.445Z,931.32
2019-03-04T04:28:16.337Z,931.26
2019-03-04T04:29:16.230Z,931.35
2019-03-04T04:30:16.135Z,931.36
2019-03-04T04:31:16.033Z,931.45
2019-03-04T04:32:15.956Z,931.35
2019-03-04T04:33:15.947Z,931.29
2019-03-04T04:34:15.748Z,931.31
2019-03-04T04:35:15.641Z,931.30
2019-03-04T04:36:15.541Z,931.36
2019-03-04T04:37:15.463Z,931.32
2019-03-04T04:38:15.346Z,931.33
2019-03-04T04:39:15.246Z,931.33
2019-03-04T04:40:15.258Z,931.39
2019-03-04T04:41:15.050Z,931.40
2019-03-04T04:42:14.994Z,931.29
2019-03-04T04:43:14.856Z,931.32
2019-03-04T04:44:14.757Z,931.35
2019-03-04T04:45:14.661Z,931.35
2019-03-04T04:46:14.562Z,931.42
2019-03-04T04:47:14.594Z,931.29
2019-03-04T04:48:14.364Z,931.29
2019-03-04T04:49:14.267Z,931.27
2019-03-04T04:50:14.165Z,931.11
2019-03-04T04:51:14.071Z,931.29
2019-03-04T04:52:13.987Z,931.30
2019-03-04T04:53:13.871Z,931.26
2019-03-04T04:54:13.878Z,931.21
2019-03-04T04:55:13.673Z,931.31
2019-03-04T04:56:13.579Z,931.22
2019-03-04T04:57:13.495Z,931.29
2019-03-04T04:58:13.377Z,931.36
2019-03-04T04:59:13.283Z,931.42
2019-03-04T05:00:13.186Z,931.37
2019-03-04T05:01:13.207Z,931.42
2019-03-04T05:02:13.001Z,931.34
2019-03-04T05:03:12.887Z,931.33
2019-03-04T05:04:12.789Z,931.27
2019-03-04T05:05:12.691Z,931.27
2019-03-04T05:06:13.116Z,931.29
2019-03-04T05:07:12.510Z,931.22
2019-03-04T05:08:12.516Z,931.21
2019-03-04T05:09:12.301Z,931.21
2019-03-04T05:10:12.211Z,931.14
2019-03-04T05:11:12.101Z,931.21
2019-03-04T05:12:12.018Z,931.23
2019-03-04T05:13:11.905Z,931.12
2019-03-04T05:14:11.806Z,930.87
2019-03-04T05:15:11.812Z,930.94
2019-03-04T05:16:11.610Z,930.92
2019-03-04T05:17:11.526Z,930.96
2019-03-04T05:18:11.416Z,930.97
2019-03-04T05:19:11.321Z,930.90
2019-03-04T05:20:11.215Z,930.98
2019-03-04T05:21:11.139Z,930.87
2019-03-04T05:22:11.036Z,930.85
2019-03-04T05:23:10.923Z,930.87
2019-03-04T05:24:10.827Z,930.83
2019-03-04T05:25:10.725Z,930.78
2019-03-04T05:26:10.627Z,930.70
2019-03-04T05:27:10.545Z,930.62
2019-03-04T05:28:10.432Z,930.56
2019-03-04T05:29:10.335Z,930.51
2019-03-04T05:30:10.240Z,930.56
2019-03-04T05:31:10.137Z,930.50
2019-03-04T05:32:10.056Z,930.53
2019-03-04T05:33:09.945Z,930.42
2019-03-04T05:34:09.840Z,930.45
2019-03-04T05:35:09.741Z,930.44
2019-03-04T05:36:09.644Z,930.35
2019-03-04T05:37:09.562Z,930.32
2019-03-04T05:38:09.448Z,930.34
2019-03-04T05:39:09.348Z,930.25
2019-03-04T05:40:09.267Z,930.29
2019-03-04T05:41:09.152Z,930.27
2019-03-04T05:42:09.070Z,930.22
2019-03-04T05:43:08.957Z,930.14
2019-03-04T05:44:08.862Z,930.17
2019-03-04T05:45:08.761Z,930.19
2019-03-04T05:46:08.663Z,930.20
2019-03-04T05:47:08.564Z,930.08
2019-03-04T05:48:08.482Z,930.05
2019-03-04T05:49:08.365Z,930.13
2019-03-04T05:50:08.269Z,930.07
2019-03-04T05:51:08.167Z,930.03
2019-03-04T05:52:08.071Z,929.95
2019-03-04T05:53:07.985Z,929.97
2019-03-04T05:54:07.875Z,929.95
2019-03-04T05:55:08.881Z,929.91
2019-03-04T05:56:07.675Z,929.95
2019-03-04T05:57:07.581Z,929.99
2019-03-04T05:58:07.495Z,929.96
2019-03-04T05:59:07.396Z,930.02
2019-03-04T06:00:07.285Z,930.06
2019-03-04T06:01:07.185Z,930.02
2019-03-04T06:02:07.087Z,930.06
2019-03-04T06:03:07.003Z,930.08
2019-03-04T06:04:06.891Z,930.00
2019-03-04T06:05:06.788Z,930.00
2019-03-04T06:06:06.690Z,929.98
2019-03-04T06:07:06.597Z,930.03
2019-03-04T06:08:06.510Z,930.01
2019-03-04T06:09:06.395Z,930.03
2019-03-04T06:10:06.300Z,930.00
2019-03-04T06:11:06.199Z,930.02
2019-03-04T06:12:06.100Z,929.92
2019-03-04T06:13:06.019Z,929.90
2019-03-04T06:14:05.903Z,929.93
2019-03-04T06:15:05.801Z,929.92
2019-03-04T06:16:05.707Z,929.91
2019-03-04T06:17:05.607Z,929.92
2019-03-04T06:18:05.528Z,929.95
2019-03-04T06:19:05.410Z,929.94
2019-03-04T06:20:05.315Z,929.95
2019-03-04T06:21:05.220Z,929.95
2019-03-04T06:22:05.120Z,929.90
2019-03-04T06:23:05.036Z,929.92
2019-03-04T06:24:04.919Z,929.79
2019-03-04T06:25:07.453Z,929.86
2019-03-04T06:26:04.726Z,929.89
2019-03-04T06:27:04.623Z,929.90
2019-03-04T06:28:04.544Z,929.78
2019-03-04T06:29:04.446Z,929.68
2019-03-04T06:30:04.339Z,929.62
2019-03-04T06:31:04.232Z,929.56
2019-03-04T06:32:04.137Z,929.45
2019-03-04T06:33:04.051Z,929.38
2019-03-04T06:34:03.938Z,929.35
2019-03-04T06:35:03.846Z,929.27
2019-03-04T06:36:03.743Z,929.33
2019-03-04T06:37:03.644Z,929.20
2019-03-04T06:38:03.562Z,929.31
2019-03-04T06:39:03.450Z,929.22
2019-03-04T06:40:03.349Z,929.29
2019-03-04T06:41:03.258Z,929.37
2019-03-04T06:42:03.156Z,929.42
2019-03-04T06:43:03.076Z,929.49
2019-03-04T06:44:02.957Z,929.69
2019-03-04T06:45:02.860Z,929.63
2019-03-04T06:46:02.761Z,929.67
2019-03-04T06:47:02.665Z,929.68
2019-03-04T06:48:02.600Z,929.69
2019-03-04T06:49:02.468Z,929.65
2019-03-04T06:50:02.370Z,929.70
2019-03-04T06:51:02.270Z,929.68
2019-03-04T06:52:02.178Z,929.59
2019-03-04T06:53:02.090Z,929.56
2019-03-04T06:54:01.977Z,929.46
2019-03-04T06:55:01.878Z,929.38
2019-03-04T06:56:01.783Z,929.24
2019-03-04T06:57:01.689Z,929.19
2019-03-04T06:58:01.601Z,929.21
2019-03-04T06:59:01.593Z,929.28
2019-03-04T07:00:01.388Z,929.35
2019-03-04T07:01:01.289Z,929.32
2019-03-04T07:02:01.194Z,929.27
2019-03-04T07:03:01.114Z,929.27
2019-03-04T07:04:00.996Z,929.23
2019-03-04T07:05:00.902Z,929.17
2019-03-04T07:06:00.905Z,929.21
2019-03-04T07:07:00.700Z,929.21
2019-03-04T07:08:00.623Z,929.12
2019-03-04T07:09:00.510Z,929.16
2019-03-04T07:10:00.414Z,929.09
2019-03-04T07:11:00.310Z,929.13
2019-03-04T07:12:00.215Z,929.19
2019-03-04T07:13:00.236Z,929.16
2019-03-04T07:14:00.018Z,929.21
2019-03-04T07:14:59.921Z,929.33
2019-03-04T07:15:59.827Z,929.41
2019-03-04T07:16:59.751Z,929.36
2019-03-04T07:17:59.646Z,929.31
2019-03-04T07:18:59.531Z,929.25
2019-03-04T07:19:59.553Z,929.01
2019-03-04T07:20:59.337Z,928.81
2019-03-04T07:21:59.244Z,928.66
2019-03-04T07:22:59.161Z,928.41
2019-03-04T07:23:59.048Z,928.17
2019-03-04T07:24:58.949Z,928.19
2019-03-04T07:25:58.861Z,928.35
2019-03-04T07:26:58.857Z,928.22
2019-03-04T07:27:58.674Z,928.17
2019-03-04T07:28:58.560Z,928.29
2019-03-04T07:29:58.463Z,928.12
2019-03-04T07:30:58.363Z,928.16
2019-03-04T07:31:58.271Z,928.07
2019-03-04T07:32:58.189Z,928.16
2019-03-04T07:33:58.177Z,928.09
2019-03-04T07:34:57.980Z,928.18
2019-03-04T07:35:57.883Z,928.01
2019-03-04T07:36:57.784Z,927.97
2019-03-04T07:37:57.702Z,928.00
2019-03-04T07:38:57.588Z,927.91
2019-03-04T07:39:57.495Z,927.91
2019-03-04T07:40:57.501Z,927.82
2019-03-04T07:41:57.298Z,927.85
2019-03-04T07:42:57.203Z,927.89
2019-03-04T07:43:57.119Z,927.88
2019-03-04T07:44:57.007Z,927.98
2019-03-04T07:45:56.909Z,928.04
2019-03-04T07:46:56.810Z,927.97
2019-03-04T07:47:56.824Z,927.92
2019-03-04T07:48:56.638Z,927.99
2019-03-04T07:49:56.521Z,927.99
2019-03-04T07:50:56.427Z,927.98
2019-03-04T07:51:56.326Z,928.03
2019-03-04T07:52:56.231Z,927.89
2019-03-04T07:53:56.153Z,927.94
2019-03-04T07:54:56.158Z,927.92
2019-03-04T07:55:55.943Z,927.85
2019-03-04T07:56:55.845Z,927.86
2019-03-04T07:57:55.757Z,928.12
2019-03-04T07:58:55.671Z,927.92
2019-03-04T07:59:55.558Z,927.94
2019-03-04T08:00:55.458Z,927.84
2019-03-04T08:01:55.472Z,927.86
2019-03-04T08:02:55.266Z,927.78
2019-03-04T08:03:55.187Z,927.74
2019-03-04T08:04:55.092Z,927.81
2019-03-04T08:05:54.980Z,927.65
2019-03-04T08:06:54.881Z,927.75
2019-03-04T08:07:54.786Z,927.71
2019-03-04T08:08:54.715Z,927.70
2019-03-04T08:09:54.597Z,927.74
2019-03-04T08:10:54.504Z,927.71
2019-03-04T08:11:54.407Z,927.68
2019-03-04T08:12:54.314Z,927.58
2019-03-04T08:13:54.236Z,927.67
2019-03-04T08:14:54.136Z,927.53
2019-03-04T08:15:54.133Z,927.49
2019-03-04T08:16:53.932Z,927.52
2019-03-04T08:17:53.838Z,927.50
2019-03-04T08:18:53.763Z,927.52
2019-03-04T08:19:53.648Z,927.46
2019-03-04T08:20:53.554Z,927.34
2019-03-04T08:21:53.462Z,927.43
2019-03-04T08:22:53.364Z,927.41
2019-03-04T08:23:53.286Z,927.49
2019-03-04T08:24:53.175Z,927.49
2019-03-04T08:25:53.083Z,927.46
2019-03-04T08:26:52.988Z,927.50
2019-03-04T08:27:52.896Z,927.42
2019-03-04T08:28:52.813Z,927.46
2019-03-04T08:29:52.703Z,927.57
2019-03-04T08:30:52.611Z,927.46
2019-03-04T08:31:52.518Z,927.55
2019-03-04T08:32:52.422Z,927.58
2019-03-04T08:33:52.345Z,927.53
2019-03-04T08:34:52.236Z,927.55
2019-03-04T08:35:52.144Z,927.45
2019-03-04T08:36:52.045Z,927.56
2019-03-04T08:37:51.949Z,927.58
2019-03-04T08:38:51.871Z,927.50
2019-03-04T08:39:51.763Z,927.52
2019-03-04T08:40:51.667Z,927.48
2019-03-04T08:41:51.603Z,927.60
2019-03-04T08:42:51.483Z,927.54
2019-03-04T08:43:51.407Z,927.57
2019-03-04T08:44:51.299Z,927.57
2019-03-04T08:45:51.201Z,927.45
2019-03-04T08:46:51.110Z,927.36
2019-03-04T08:47:51.015Z,927.42
2019-03-04T08:48:50.938Z,927.44
2019-03-04T08:49:50.828Z,927.44
2019-03-04T08:50:50.736Z,927.39
2019-03-04T08:51:50.646Z,927.39
2019-03-04T08:52:50.551Z,927.53
2019-03-04T08:53:50.483Z,927.53
2019-03-04T08:54:50.362Z,927.40
2019-03-04T08:55:50.277Z,927.31
2019-03-04T08:56:50.179Z,927.41
2019-03-04T08:57:50.085Z,927.42
2019-03-04T08:58:50.011Z,927.15
2019-03-04T08:59:49.912Z,927.50
2019-03-04T09:00:49.810Z,927.65
2019-03-04T09:01:49.715Z,927.69
2019-03-04T09:02:49.624Z,927.68
2019-03-04T09:03:49.548Z,927.69
2019-03-04T09:04:49.438Z,927.72
2019-03-04T09:05:49.345Z,927.76
2019-03-04T09:06:49.254Z,927.73
2019-03-04T09:07:49.162Z,927.94
2019-03-04T09:08:49.088Z,927.74
2019-03-04T09:09:48.979Z,927.86
2019-03-04T09:10:48.887Z,927.85
2019-03-04T09:11:48.809Z,927.90
2019-03-04T09:12:48.699Z,927.68
2019-03-04T09:13:48.623Z,927.92
2019-03-04T09:14:48.513Z,927.81
2019-03-04T09:15:48.422Z,927.81
2019-03-04T09:16:48.329Z,927.95
2019-03-04T09:17:48.236Z,927.99
2019-03-04T09:18:48.158Z,927.93
2019-03-04T09:19:48.051Z,927.93
2019-03-04T09:20:47.964Z,928.03
2019-03-04T09:21:47.865Z,928.03
2019-03-04T09:22:47.775Z,928.06
2019-03-04T09:23:49.926Z,928.11
2019-03-04T09:24:47.605Z,928.02
2019-03-04T09:25:47.497Z,928.08
2019-03-04T09:26:47.402Z,928.09
2019-03-04T09:27:47.311Z,928.10
2019-03-04T09:28:47.225Z,928.10
2019-03-04T09:29:47.145Z,928.20
2019-03-04T09:30:47.035Z,928.17
2019-03-04T09:31:46.945Z,928.24
2019-03-04T09:32:46.858Z,928.20
2019-03-04T09:33:46.765Z,928.02
2019-03-04T09:34:46.688Z,927.97
2019-03-04T09:35:46.582Z,927.98
2019-03-04T09:36:46.491Z,927.92
2019-03-04T09:37:46.410Z,927.99
2019-03-04T09:38:46.314Z,927.98
2019-03-04T09:39:46.235Z,928.12
2019-03-04T09:40:46.126Z,928.00
2019-03-04T09:41:46.038Z,927.81
2019-03-04T09:42:45.943Z,928.03
2019-03-04T09:43:45.858Z,928.09
2019-03-04T09:44:45.781Z,928.02
2019-03-04T09:45:45.669Z,928.09
2019-03-04T09:46:45.579Z,928.20
2019-03-04T09:47:45.488Z,928.19
2019-03-04T09:48:45.393Z,928.17
2019-03-04T09:49:45.321Z,928.17
2019-03-04T09:50:45.207Z,928.25
2019-03-04T09:51:45.119Z,928.24
2019-03-04T09:52:45.031Z,928.24
2019-03-04T09:53:44.935Z,928.27
2019-03-04T09:54:44.855Z,928.29
2019-03-04T09:55:44.746Z,928.21
2019-03-04T09:56:44.654Z,928.30
2019-03-04T09:57:44.565Z,928.37
2019-03-04T09:58:44.465Z,928.36
2019-03-04T09:59:44.392Z,928.39
2019-03-04T10:00:44.436Z,928.28
2019-03-04T10:01:44.187Z,928.20
2019-03-04T10:02:44.093Z,928.22
2019-03-04T10:03:43.998Z,928.25
2019-03-04T10:04:43.928Z,928.06
2019-03-04T10:05:43.813Z,928.15
2019-03-04T10:06:43.720Z,928.07
2019-03-04T10:07:43.755Z,928.17
2019-03-04T10:08:43.531Z,928.19
2019-03-04T10:09:43.453Z,928.25
2019-03-04T10:10:43.342Z,928.15
2019-03-04T10:11:43.250Z,928.17
2019-03-04T10:12:43.157Z,928.13
2019-03-04T10:13:43.060Z,928.32
2019-03-04T10:14:43.091Z,928.13
2019-03-04T10:15:42.870Z,928.03
2019-03-04T10:16:42.777Z,928.24
2019-03-04T10:17:42.686Z,928.24
2019-03-04T10:18:42.587Z,928.02
2019-03-04T10:19:42.511Z,928.16
2019-03-04T10:20:42.408Z,928.10
2019-03-04T10:21:42.413Z,928.12
2019-03-04T10:22:42.207Z,928.14
2019-03-04T10:23:42.117Z,927.97
2019-03-04T10:24:42.039Z,928.02
2019-03-04T10:25:41.927Z,927.60
2019-03-04T10:26:41.830Z,928.09
2019-03-04T10:27:41.757Z,927.96
2019-03-04T10:28:41.764Z,927.99
2019-03-04T10:29:41.565Z,927.75
2019-03-04T10:30:41.451Z,927.82
2019-03-04T10:31:41.358Z,927.78
2019-03-04T10:32:41.262Z,927.91
2019-03-04T10:33:41.167Z,927.87
2019-03-04T10:34:41.084Z,927.97
2019-03-04T10:35:41.078Z,927.84
2019-03-04T10:36:40.882Z,928.04
2019-03-04T10:37:40.785Z,927.90
2019-03-04T10:38:42.996Z,927.57
2019-03-04T10:39:40.611Z,927.53
2019-03-04T10:40:40.502Z,927.58
2019-03-04T10:41:40.405Z,927.43
2019-03-04T10:42:40.412Z,927.47
2019-03-04T10:43:40.213Z,927.47
2019-03-04T10:44:40.141Z,927.47
2019-03-04T10:45:40.025Z,927.27
2019-03-04T10:46:39.926Z,927.37
2019-03-04T10:47:39.830Z,927.11
2019-03-04T10:48:39.739Z,927.02
2019-03-04T10:49:39.764Z,927.19
2019-03-04T10:50:39.545Z,927.27
2019-03-04T10:51:39.452Z,927.29
2019-03-04T10:52:39.362Z,927.19
2019-03-04T10:53:39.262Z,927.38
2019-03-04T10:54:39.183Z,927.11
2019-03-04T10:55:42.268Z,927.24
2019-03-04T10:56:40.717Z,927.34
2019-03-04T10:57:38.878Z,927.24
2019-03-04T10:58:38.782Z,927.22
2019-03-04T10:59:38.705Z,927.19
2019-03-04T11:00:38.594Z,927.27
2019-03-04T11:01:38.499Z,927.01
2019-03-04T11:02:38.402Z,927.21
2019-03-04T11:03:38.417Z,927.09
2019-03-04T11:04:38.235Z,927.21
2019-03-04T11:05:38.117Z,926.92
2019-03-04T11:06:38.023Z,927.02
2019-03-04T11:07:37.926Z,927.02
2019-03-04T11:08:37.833Z,926.83
2019-03-04T11:09:37.861Z,927.00
2019-03-04T11:10:37.641Z,926.83
2019-03-04T11:11:37.551Z,926.82
2019-03-04T11:12:37.454Z,926.92
2019-03-04T11:13:37.358Z,926.98
2019-03-04T11:14:37.262Z,927.00
2019-03-04T11:15:37.182Z,927.13
2019-03-04T11:16:37.084Z,927.12
2019-03-04T11:17:37.032Z,927.19
2019-03-04T11:18:36.880Z,927.26
2019-03-04T11:19:36.789Z,926.93
2019-03-04T11:20:36.711Z,927.18
2019-03-04T11:21:36.599Z,927.15
2019-03-04T11:22:36.501Z,926.88
2019-03-04T11:23:36.412Z,926.87
2019-03-04T11:24:36.318Z,926.91
2019-03-04T11:25:36.242Z,926.76
2019-03-04T11:26:36.126Z,926.93
2019-03-04T11:27:36.026Z,926.86
2019-03-04T11:28:35.937Z,926.90
2019-03-04T11:29:35.845Z,926.98
2019-03-04T11:30:35.758Z,927.20
2019-03-04T11:31:35.648Z,927.11
2019-03-04T11:32:35.553Z,927.07
2019-03-04T11:33:35.457Z,927.29
2019-03-04T11:34:35.361Z,927.06
2019-03-04T11:35:35.285Z,927.08
2019-03-04T11:36:35.172Z,927.13
2019-03-04T11:37:35.081Z,927.03
2019-03-04T11:38:34.985Z,927.34
2019-03-04T11:39:34.887Z,927.19
2019-03-04T11:40:34.812Z,927.04
2019-03-04T11:41:34.698Z,926.89
2019-03-04T11:42:34.602Z,926.77
2019-03-04T11:43:34.511Z,926.83
2019-03-04T11:44:34.418Z,926.80
2019-03-04T11:45:34.340Z,926.76
2019-03-04T11:46:34.230Z,926.72
2019-03-04T11:47:34.132Z,926.71
2019-03-04T11:48:34.041Z,926.73
2019-03-04T11:49:33.945Z,926.79
2019-03-04T11:50:33.868Z,926.84
2019-03-04T11:51:33.759Z,926.87
2019-03-04T11:52:33.661Z,926.76
2019-03-04T11:53:33.570Z,926.89
2019-03-04T11:54:33.475Z,926.65
2019-03-04T11:55:33.401Z,926.75
2019-03-04T11:56:33.288Z,926.87
2019-03-04T11:57:33.193Z,927.13
2019-03-04T11:58:33.096Z,926.99
2019-03-04T11:59:33.003Z,926.69
2019-03-04T12:00:32.925Z,926.70
2019-03-04T12:01:32.813Z,926.83
2019-03-04T12:02:38.793Z,926.96
2019-03-04T12:03:32.628Z,926.72
2019-03-04T12:04:32.531Z,926.70
2019-03-04T12:05:32.470Z,926.65
2019-03-04T12:06:32.340Z,926.65
2019-03-04T12:07:32.249Z,926.65
2019-03-04T12:08:32.158Z,926.60
2019-03-04T12:09:32.065Z,926.65
2019-03-04T12:10:31.990Z,926.61
2019-03-04T12:11:38.284Z,926.54
2019-03-04T12:12:31.779Z,926.55
2019-03-04T12:13:31.688Z,926.72
2019-03-04T12:14:31.591Z,926.69
2019-03-04T12:15:31.518Z,926.64
2019-03-04T12:16:31.403Z,926.61
2019-03-04T12:17:31.308Z,926.71
2019-03-04T12:18:31.218Z,926.66
2019-03-04T12:19:31.124Z,926.46
2019-03-04T12:20:31.044Z,926.67
2019-03-04T12:21:30.935Z,926.84
2019-03-04T12:22:30.837Z,926.90
2019-03-04T12:23:30.746Z,926.95
2019-03-04T12:24:30.653Z,926.72
2019-03-04T12:25:30.574Z,926.80
2019-03-04T12:26:30.570Z,926.78
2019-03-04T12:27:30.370Z,926.74